createdAt,value
2018-02-07T00:00:46.570Z,83.30
2018-02-07T00:01:46.567Z,83.02
2018-02-07T00:02:46.523Z,83.59
2018-02-07T00:03:46.502Z,83.59
2018-02-07T00:04:46.509Z,83.21
2018-02-07T00:05:46.449Z,83.21
2018-02-07T00:06:46.422Z,83.78
2018-02-07T00:07:46.400Z,83.97
2018-02-07T00:08:46.377Z,83.83
2018-02-07T00:09:46.370Z,83.78
2018-02-07T00:10:46.329Z,83.92
2018-02-07T00:11:46.298Z,84.53
2018-02-07T00:12:46.276Z,83.87
2018-02-07T00:13:46.253Z,84.06
2018-02-07T00:14:46.226Z,83.73
2018-02-07T00:15:46.202Z,84.30
2018-02-07T00:16:46.177Z,83.92
2018-02-07T00:17:46.151Z,84.39
2018-02-07T00:18:46.127Z,84.30
2018-02-07T00:19:46.104Z,84.01
2018-02-07T00:20:46.079Z,84.11
2018-02-07T00:21:46.055Z,84.30
2018-02-07T00:22:46.025Z,84.39
2018-02-07T00:23:46.004Z,84.49
2018-02-07T00:24:45.976Z,83.92
2018-02-07T00:25:45.952Z,84.30
2018-02-07T00:26:45.932Z,84.01
2018-02-07T00:27:45.911Z,84.86
2018-02-07T00:28:45.875Z,84.39
2018-02-07T00:29:45.851Z,84.30
2018-02-07T00:30:45.829Z,84.86
2018-02-07T00:31:45.806Z,84.30
2018-02-07T00:32:45.781Z,84.49
2018-02-07T00:33:45.757Z,84.30
2018-02-07T00:34:45.736Z,84.11
2018-02-07T00:35:45.701Z,84.30
2018-02-07T00:36:45.679Z,84.39
2018-02-07T00:37:45.657Z,84.39
2018-02-07T00:38:45.642Z,84.34
2018-02-07T00:39:45.602Z,84.39
2018-02-07T00:40:45.584Z,84.39
2018-02-07T00:41:45.560Z,84.06
2018-02-07T00:42:45.591Z,84.01
2018-02-07T00:43:45.511Z,84.06
2018-02-07T00:44:45.480Z,83.87
2018-02-07T00:45:45.496Z,83.49
2018-02-07T00:46:45.433Z,83.83
2018-02-07T00:47:45.407Z,83.83
2018-02-07T00:48:45.381Z,83.83
2018-02-07T00:49:45.353Z,84.01
2018-02-07T00:50:45.338Z,84.58
2018-02-07T00:51:45.305Z,84.49
2018-02-07T00:52:45.282Z,84.49
2018-02-07T00:53:45.257Z,84.58
2018-02-07T00:54:45.241Z,84.86
2018-02-07T00:55:45.206Z,84.77
2018-02-07T00:56:45.178Z,84.20
2018-02-07T00:57:45.161Z,84.20
2018-02-07T00:58:45.132Z,84.49
2018-02-07T00:59:45.111Z,84.77
2018-02-07T01:00:45.078Z,84.86
2018-02-07T01:01:45.056Z,85.72
2018-02-07T01:02:45.035Z,85.05
2018-02-07T01:03:45.004Z,85.53
2018-02-07T01:04:44.980Z,84.77
2018-02-07T01:05:44.956Z,84.86
2018-02-07T01:06:44.926Z,85.05
2018-02-07T01:07:44.900Z,84.77
2018-02-07T01:08:44.876Z,84.20
2018-02-07T01:09:44.862Z,84.49
2018-02-07T01:10:44.830Z,84.49
2018-02-07T01:11:44.806Z,84.01
2018-02-07T01:12:44.779Z,84.77
2018-02-07T01:13:44.754Z,84.39
2018-02-07T01:14:44.730Z,84.20
2018-02-07T01:15:44.700Z,84.30
2018-02-07T01:16:44.679Z,84.39
2018-02-07T01:17:44.654Z,84.86
2018-02-07T01:18:44.630Z,84.49
2018-02-07T01:19:44.599Z,84.30
2018-02-07T01:20:44.578Z,84.77
2018-02-07T01:21:44.555Z,84.86
2018-02-07T01:22:44.526Z,84.49
2018-02-07T01:23:44.520Z,85.05
2018-02-07T01:24:44.478Z,84.58
2018-02-07T01:25:44.455Z,84.86
2018-02-07T01:26:44.431Z,84.49
2018-02-07T01:27:44.404Z,84.68
2018-02-07T01:28:44.380Z,84.86
2018-02-07T01:29:44.352Z,84.86
2018-02-07T01:30:44.326Z,84.86
2018-02-07T01:31:44.305Z,84.96
2018-02-07T01:32:44.279Z,85.53
2018-02-07T01:33:44.253Z,85.34
2018-02-07T01:34:44.228Z,85.24
2018-02-07T01:35:44.200Z,85.34
2018-02-07T01:36:44.178Z,84.86
2018-02-07T01:37:44.150Z,84.77
2018-02-07T01:38:44.128Z,84.49
2018-02-07T01:39:44.099Z,84.68
2018-02-07T01:40:44.075Z,84.77
2018-02-07T01:41:44.052Z,84.86
2018-02-07T01:42:44.024Z,84.77
2018-02-07T01:43:43.999Z,84.86
2018-02-07T01:44:43.977Z,85.05
2018-02-07T01:45:43.952Z,85.53
2018-02-07T01:46:43.928Z,85.24
2018-02-07T01:47:43.904Z,85.34
2018-02-07T01:48:43.878Z,85.34
2018-02-07T01:49:43.854Z,85.53
2018-02-07T01:50:43.831Z,85.43
2018-02-07T01:51:43.801Z,85.15
2018-02-07T01:52:43.777Z,85.34
2018-02-07T01:53:43.748Z,85.15
2018-02-07T01:54:43.727Z,84.58
2018-02-07T01:55:43.701Z,85.15
2018-02-07T01:56:43.676Z,84.86
2018-02-07T01:57:43.651Z,85.24
2018-02-07T01:58:43.628Z,84.86
2018-02-07T01:59:43.603Z,84.58
2018-02-07T02:00:43.576Z,84.68
2018-02-07T02:01:43.551Z,84.86
2018-02-07T02:02:43.522Z,84.77
2018-02-07T02:03:43.500Z,84.58
2018-02-07T02:04:43.476Z,84.49
2018-02-07T02:05:43.453Z,84.86
2018-02-07T02:06:43.431Z,85.43
2018-02-07T02:07:43.400Z,85.05
2018-02-07T02:08:43.373Z,85.05
2018-02-07T02:09:43.352Z,85.15
2018-02-07T02:10:43.322Z,84.68
2018-02-07T02:11:43.296Z,84.68
2018-02-07T02:12:43.275Z,84.30
2018-02-07T02:13:43.252Z,84.30
2018-02-07T02:14:43.223Z,84.49
2018-02-07T02:15:43.196Z,84.49
2018-02-07T02:16:43.174Z,84.30
2018-02-07T02:17:43.150Z,84.30
2018-02-07T02:18:43.152Z,84.11
2018-02-07T02:19:43.099Z,84.20
2018-02-07T02:20:43.080Z,84.39
2018-02-07T02:21:43.050Z,84.20
2018-02-07T02:22:43.091Z,84.49
2018-02-07T02:23:42.999Z,84.20
2018-02-07T02:24:42.978Z,84.49
2018-02-07T02:25:42.947Z,84.30
2018-02-07T02:26:42.922Z,84.30
2018-02-07T02:27:42.900Z,84.49
2018-02-07T02:28:42.876Z,84.86
2018-02-07T02:29:42.850Z,84.96
2018-02-07T02:30:42.830Z,84.77
2018-02-07T02:31:42.801Z,84.20
2018-02-07T02:32:42.783Z,84.49
2018-02-07T02:33:42.750Z,84.39
2018-02-07T02:34:42.722Z,84.01
2018-02-07T02:35:42.701Z,84.11
2018-02-07T02:36:42.673Z,84.39
2018-02-07T02:37:42.646Z,84.77
2018-02-07T02:38:42.623Z,84.58
2018-02-07T02:39:42.600Z,85.05
2018-02-07T02:40:42.571Z,85.53
2018-02-07T02:41:42.551Z,85.43
2018-02-07T02:42:42.526Z,85.24
2018-02-07T02:43:42.496Z,85.62
2018-02-07T02:44:42.476Z,85.53
2018-02-07T02:45:42.450Z,85.43
2018-02-07T02:46:42.422Z,85.62
2018-02-07T02:47:42.402Z,85.91
2018-02-07T02:48:42.371Z,85.53
2018-02-07T02:49:42.346Z,85.53
2018-02-07T02:50:42.322Z,85.34
2018-02-07T02:51:42.313Z,85.34
2018-02-07T02:52:42.273Z,85.53
2018-02-07T02:53:42.248Z,85.15
2018-02-07T02:54:42.229Z,85.15
2018-02-07T02:55:42.197Z,85.72
2018-02-07T02:56:42.175Z,85.91
2018-02-07T02:57:42.150Z,85.91
2018-02-07T02:58:42.125Z,86.19
2018-02-07T02:59:42.151Z,86.19
2018-02-07T03:00:42.075Z,86.19
2018-02-07T03:01:42.049Z,86.00
2018-02-07T03:02:42.022Z,86.38
2018-02-07T03:03:42.006Z,87.13
2018-02-07T03:04:41.969Z,86.38
2018-02-07T03:05:41.948Z,86.38
2018-02-07T03:06:41.929Z,86.94
2018-02-07T03:07:41.893Z,87.13
2018-02-07T03:08:41.869Z,86.29
2018-02-07T03:09:41.849Z,86.94
2018-02-07T03:10:41.839Z,86.76
2018-02-07T03:11:41.792Z,86.85
2018-02-07T03:12:41.767Z,86.66
2018-02-07T03:13:41.742Z,86.66
2018-02-07T03:14:41.722Z,86.57
2018-02-07T03:15:41.691Z,87.23
2018-02-07T03:16:41.666Z,86.47
2018-02-07T03:17:41.644Z,86.38
2018-02-07T03:18:41.621Z,86.38
2018-02-07T03:19:41.588Z,86.38
2018-02-07T03:20:41.567Z,86.38
2018-02-07T03:21:41.548Z,86.29
2018-02-07T03:22:41.517Z,86.00
2018-02-07T03:23:41.491Z,86.19
2018-02-07T03:24:41.466Z,86.47
2018-02-07T03:25:41.442Z,86.29
2018-02-07T03:26:41.416Z,87.23
2018-02-07T03:27:41.387Z,86.76
2018-02-07T03:28:41.421Z,86.10
2018-02-07T03:29:41.336Z,87.13
2018-02-07T03:30:41.315Z,86.66
2018-02-07T03:31:41.286Z,86.94
2018-02-07T03:32:41.260Z,86.90
2018-02-07T03:33:41.236Z,87.32
2018-02-07T03:34:41.213Z,87.42
2018-02-07T03:35:41.187Z,87.23
2018-02-07T03:36:41.164Z,86.85
2018-02-07T03:37:41.132Z,86.80
2018-02-07T03:38:41.112Z,87.04
2018-02-07T03:39:41.085Z,86.76
2018-02-07T03:40:41.056Z,86.94
2018-02-07T03:41:41.035Z,86.57
2018-02-07T03:42:41.017Z,86.38
2018-02-07T03:43:40.983Z,86.38
2018-02-07T03:44:40.956Z,85.91
2018-02-07T03:45:40.934Z,85.62
2018-02-07T03:46:40.911Z,86.47
2018-02-07T03:47:40.878Z,86.94
2018-02-07T03:48:40.856Z,87.04
2018-02-07T03:49:40.831Z,86.85
2018-02-07T03:50:40.811Z,86.94
2018-02-07T03:51:40.779Z,86.71
2018-02-07T03:52:40.794Z,86.66
2018-02-07T03:53:40.730Z,86.94
2018-02-07T03:54:40.706Z,86.90
2018-02-07T03:55:40.677Z,86.94
2018-02-07T03:56:40.654Z,86.76
2018-02-07T03:57:40.624Z,86.99
2018-02-07T03:58:40.603Z,87.04
2018-02-07T03:59:40.577Z,86.66
2018-02-07T04:00:40.552Z,86.94
2018-02-07T04:01:40.523Z,86.90
2018-02-07T04:02:40.501Z,86.90
2018-02-07T04:03:40.475Z,86.94
2018-02-07T04:04:40.448Z,86.99
2018-02-07T04:05:40.421Z,86.80
2018-02-07T04:06:40.399Z,86.52
2018-02-07T04:07:40.370Z,86.80
2018-02-07T04:08:40.344Z,86.80
2018-02-07T04:09:40.319Z,87.47
2018-02-07T04:10:40.296Z,87.66
2018-02-07T04:11:40.272Z,87.47
2018-02-07T04:12:40.243Z,87.28
2018-02-07T04:13:40.217Z,87.47
2018-02-07T04:14:40.200Z,87.47
2018-02-07T04:15:40.170Z,87.18
2018-02-07T04:16:40.148Z,87.28
2018-02-07T04:17:40.114Z,87.28
2018-02-07T04:18:40.093Z,87.18
2018-02-07T04:19:40.063Z,87.47
2018-02-07T04:20:40.062Z,86.80
2018-02-07T04:21:40.020Z,87.47
2018-02-07T04:22:39.996Z,87.09
2018-02-07T04:23:39.961Z,86.90
2018-02-07T04:24:39.940Z,86.90
2018-02-07T04:25:39.914Z,86.90
2018-02-07T04:26:39.901Z,86.90
2018-02-07T04:27:39.862Z,86.99
2018-02-07T04:28:39.837Z,87.28
2018-02-07T04:29:39.815Z,86.62
2018-02-07T04:30:39.859Z,87.09
2018-02-07T04:31:39.760Z,87.37
2018-02-07T04:32:39.735Z,87.56
2018-02-07T04:33:39.706Z,87.66
2018-02-07T04:34:39.684Z,87.37
2018-02-07T04:35:39.659Z,87.37
2018-02-07T04:36:39.629Z,87.56
2018-02-07T04:37:39.607Z,87.28
2018-02-07T04:38:39.640Z,87.56
2018-02-07T04:39:39.552Z,87.94
2018-02-07T04:40:39.690Z,87.66
2018-02-07T04:41:39.505Z,87.56
2018-02-07T04:42:39.490Z,87.56
2018-02-07T04:43:39.453Z,87.47
2018-02-07T04:44:39.425Z,87.47
2018-02-07T04:45:39.402Z,87.75
2018-02-07T04:46:39.376Z,87.66
2018-02-07T04:47:39.352Z,87.66
2018-02-07T04:48:39.322Z,87.28
2018-02-07T04:49:39.308Z,87.75
2018-02-07T04:50:39.298Z,87.47
2018-02-07T04:51:39.290Z,87.75
2018-02-07T04:52:39.232Z,87.28
2018-02-07T04:53:39.289Z,87.47
2018-02-07T04:54:39.167Z,87.37
2018-02-07T04:55:39.143Z,86.90
2018-02-07T04:56:39.116Z,86.90
2018-02-07T04:57:39.106Z,86.71
2018-02-07T04:58:39.083Z,86.90
2018-02-07T04:59:39.041Z,86.80
2018-02-07T05:00:39.018Z,87.28
2018-02-07T05:01:38.986Z,87.28
2018-02-07T05:02:38.966Z,87.37
2018-02-07T05:03:38.940Z,87.66
2018-02-07T05:04:38.908Z,87.09
2018-02-07T05:05:38.886Z,87.09
2018-02-07T05:06:38.861Z,87.09
2018-02-07T05:07:38.845Z,87.47
2018-02-07T05:08:38.829Z,87.28
2018-02-07T05:09:38.863Z,87.85
2018-02-07T05:10:38.760Z,87.75
2018-02-07T05:11:38.738Z,87.28
2018-02-07T05:12:38.731Z,87.47
2018-02-07T05:13:38.698Z,87.28
2018-02-07T05:14:38.664Z,87.28
2018-02-07T05:15:38.637Z,87.66
2018-02-07T05:16:38.612Z,87.75
2018-02-07T05:17:38.590Z,87.56
2018-02-07T05:18:38.550Z,87.28
2018-02-07T05:19:38.545Z,87.75
2018-02-07T05:20:38.532Z,88.04
2018-02-07T05:21:38.497Z,87.75
2018-02-07T05:22:38.455Z,87.56
2018-02-07T05:23:38.425Z,87.56
2018-02-07T05:24:38.393Z,87.75
2018-02-07T05:25:38.383Z,87.37
2018-02-07T05:26:38.355Z,87.56
2018-02-07T05:27:38.381Z,87.28
2018-02-07T05:28:38.338Z,87.28
2018-02-07T05:29:38.322Z,87.75
2018-02-07T05:30:38.474Z,87.56
2018-02-07T05:31:38.297Z,87.47
2018-02-07T05:32:38.243Z,87.75
2018-02-07T05:33:38.210Z,88.04
2018-02-07T05:34:38.171Z,87.85
2018-02-07T05:35:38.152Z,87.56
2018-02-07T05:36:38.216Z,88.13
2018-02-07T05:37:38.099Z,87.85
2018-02-07T05:38:38.089Z,88.23
2018-02-07T05:39:38.020Z,88.51
2018-02-07T05:40:38.012Z,88.51
2018-02-07T05:41:38.022Z,87.99
2018-02-07T05:42:37.962Z,88.09
2018-02-07T05:43:38.007Z,88.37
2018-02-07T05:44:37.879Z,88.18
2018-02-07T05:45:37.867Z,88.09
2018-02-07T05:46:37.846Z,88.60
2018-02-07T05:47:37.847Z,88.13
2018-02-07T05:48:37.862Z,87.94
2018-02-07T05:49:37.770Z,87.85
2018-02-07T05:50:37.755Z,87.75
2018-02-07T05:51:37.753Z,88.04
2018-02-07T05:52:37.676Z,87.56
2018-02-07T05:53:37.643Z,87.75
2018-02-07T05:54:37.676Z,87.47
2018-02-07T05:55:37.621Z,87.28
2018-02-07T05:56:37.571Z,87.18
2018-02-07T05:57:37.549Z,87.56
2018-02-07T05:58:37.520Z,87.66
2018-02-07T05:59:37.500Z,87.85
2018-02-07T06:00:37.467Z,87.37
2018-02-07T06:01:37.463Z,87.28
2018-02-07T06:02:37.424Z,87.43
2018-02-07T06:03:37.414Z,87.33
2018-02-07T06:04:37.359Z,87.33
2018-02-07T06:05:37.332Z,87.71
2018-02-07T06:06:37.307Z,87.90
2018-02-07T06:07:37.298Z,88.09
2018-02-07T06:08:37.246Z,88.28
2018-02-07T06:09:37.300Z,88.37
2018-02-07T06:10:37.210Z,88.56
2018-02-07T06:11:37.186Z,87.80
2018-02-07T06:12:37.167Z,88.46
2018-02-07T06:13:37.128Z,88.09
2018-02-07T06:14:37.091Z,88.56
2018-02-07T06:15:37.065Z,88.28
2018-02-07T06:16:37.061Z,87.99
2018-02-07T06:17:37.034Z,88.56
2018-02-07T06:18:37.019Z,87.99
2018-02-07T06:19:36.971Z,88.28
2018-02-07T06:20:36.943Z,88.28
2018-02-07T06:21:36.942Z,88.37
2018-02-07T06:22:37.832Z,88.18
2018-02-07T06:23:36.894Z,88.32
2018-02-07T06:24:36.855Z,87.52
2018-02-07T06:25:36.801Z,87.33
2018-02-07T06:26:36.784Z,87.90
2018-02-07T06:27:36.769Z,87.33
2018-02-07T06:28:36.785Z,87.56
2018-02-07T06:29:36.737Z,87.33
2018-02-07T06:30:36.691Z,87.43
2018-02-07T06:31:36.649Z,87.24
2018-02-07T06:32:36.647Z,87.43
2018-02-07T06:33:36.600Z,87.24
2018-02-07T06:34:36.574Z,87.71
2018-02-07T06:35:36.553Z,87.33
2018-02-07T06:36:36.552Z,87.33
2018-02-07T06:37:36.522Z,87.71
2018-02-07T06:38:36.459Z,87.14
2018-02-07T06:39:36.483Z,87.90
2018-02-07T06:40:36.409Z,87.80
2018-02-07T06:41:36.383Z,88.28
2018-02-07T06:42:36.371Z,88.37
2018-02-07T06:43:36.398Z,88.46
2018-02-07T06:44:36.324Z,88.84
2018-02-07T06:45:36.278Z,88.75
2018-02-07T06:46:36.258Z,89.12
2018-02-07T06:47:36.236Z,88.84
2018-02-07T06:48:36.226Z,89.03
2018-02-07T06:49:36.171Z,89.40
2018-02-07T06:50:36.165Z,88.93
2018-02-07T06:51:36.158Z,88.56
2018-02-07T06:52:36.144Z,89.12
2018-02-07T06:53:36.099Z,88.84
2018-02-07T06:54:36.051Z,88.93
2018-02-07T06:55:36.019Z,89.22
2018-02-07T06:56:35.985Z,88.65
2018-02-07T06:57:35.966Z,88.65
2018-02-07T06:58:35.956Z,88.84
2018-02-07T06:59:35.907Z,88.75
2018-02-07T07:00:35.886Z,88.46
2018-02-07T07:01:35.855Z,88.93
2018-02-07T07:02:35.829Z,88.37
2018-02-07T07:03:35.806Z,88.56
2018-02-07T07:04:35.783Z,88.93
2018-02-07T07:05:35.743Z,88.84
2018-02-07T07:06:35.753Z,88.75
2018-02-07T07:07:35.707Z,88.84
2018-02-07T07:08:35.672Z,89.50
2018-02-07T07:09:35.666Z,88.65
2018-02-07T07:10:35.615Z,89.03
2018-02-07T07:11:35.594Z,88.65
2018-02-07T07:12:35.556Z,88.75
2018-02-07T07:13:35.538Z,88.93
2018-02-07T07:14:35.536Z,88.84
2018-02-07T07:15:35.486Z,88.56
2018-02-07T07:16:35.487Z,88.93
2018-02-07T07:17:35.459Z,88.56
2018-02-07T07:18:35.522Z,88.75
2018-02-07T07:19:35.382Z,89.22
2018-02-07T07:20:35.346Z,88.93
2018-02-07T07:21:35.329Z,89.03
2018-02-07T07:22:35.301Z,88.56
2018-02-07T07:23:35.286Z,88.84
2018-02-07T07:24:35.250Z,88.65
2018-02-07T07:25:35.220Z,89.03
2018-02-07T07:26:35.197Z,88.93
2018-02-07T07:27:35.174Z,89.03
2018-02-07T07:28:35.160Z,89.22
2018-02-07T07:29:35.121Z,89.31
2018-02-07T07:30:35.084Z,89.31
2018-02-07T07:31:35.062Z,89.12
2018-02-07T07:32:35.044Z,89.50
2018-02-07T07:33:35.063Z,89.59
2018-02-07T07:34:34.981Z,89.50
2018-02-07T07:35:34.950Z,89.40
2018-02-07T07:36:34.925Z,89.40
2018-02-07T07:37:34.896Z,89.40
2018-02-07T07:38:34.910Z,89.12
2018-02-07T07:39:34.895Z,89.59
2018-02-07T07:40:34.878Z,89.31
2018-02-07T07:41:34.823Z,89.12
2018-02-07T07:42:34.774Z,88.75
2018-02-07T07:43:34.745Z,88.56
2018-02-07T07:44:34.725Z,88.75
2018-02-07T07:45:34.735Z,89.40
2018-02-07T07:46:34.670Z,89.12
2018-02-07T07:47:34.628Z,89.31
2018-02-07T07:48:34.609Z,88.93
2018-02-07T07:49:34.579Z,88.65
2018-02-07T07:50:34.568Z,89.12
2018-02-07T07:51:34.531Z,89.40
2018-02-07T07:52:34.512Z,89.40
2018-02-07T07:53:34.492Z,89.59
2018-02-07T07:54:34.455Z,89.40
2018-02-07T07:55:34.414Z,89.88
2018-02-07T07:56:34.411Z,90.07
2018-02-07T07:57:34.377Z,89.22
2018-02-07T07:58:34.337Z,89.50
2018-02-07T07:59:34.311Z,89.40
2018-02-07T08:00:34.292Z,88.56
2018-02-07T08:01:34.264Z,88.65
2018-02-07T08:02:34.230Z,88.84
2018-02-07T08:03:34.211Z,88.65
2018-02-07T08:04:34.182Z,88.75
2018-02-07T08:05:34.157Z,88.56
2018-02-07T08:06:34.134Z,88.46
2018-02-07T08:07:34.100Z,88.46
2018-02-07T08:08:34.093Z,88.65
2018-02-07T08:09:34.061Z,87.99
2018-02-07T08:10:34.037Z,88.84
2018-02-07T08:11:34.013Z,88.56
2018-02-07T08:12:34.004Z,89.59
2018-02-07T08:13:33.962Z,88.75
2018-02-07T08:14:33.961Z,88.84
2018-02-07T08:15:33.886Z,89.03
2018-02-07T08:16:33.866Z,89.12
2018-02-07T08:17:33.836Z,88.75
2018-02-07T08:18:33.828Z,88.84
2018-02-07T08:19:33.790Z,89.12
2018-02-07T08:20:33.759Z,89.12
2018-02-07T08:21:33.753Z,88.93
2018-02-07T08:22:33.722Z,88.93
2018-02-07T08:23:33.679Z,88.93
2018-02-07T08:24:33.677Z,89.03
2018-02-07T08:25:33.624Z,88.84
2018-02-07T08:26:33.603Z,89.12
2018-02-07T08:27:33.581Z,88.93
2018-02-07T08:28:33.551Z,89.03
2018-02-07T08:29:33.550Z,88.65
2018-02-07T08:30:33.593Z,89.22
2018-02-07T08:31:33.466Z,89.03
2018-02-07T08:32:33.486Z,89.50
2018-02-07T08:33:33.433Z,88.84
2018-02-07T08:34:33.378Z,88.65
2018-02-07T08:35:33.359Z,88.93
2018-02-07T08:36:33.342Z,88.65
2018-02-07T08:37:33.350Z,88.65
2018-02-07T08:38:33.297Z,88.93
2018-02-07T08:39:33.274Z,88.93
2018-02-07T08:40:33.220Z,88.46
2018-02-07T08:41:33.279Z,89.31
2018-02-07T08:42:33.166Z,88.56
2018-02-07T08:43:33.144Z,89.03
2018-02-07T08:44:33.115Z,89.03
2018-02-07T08:45:33.099Z,88.46
2018-02-07T08:46:33.091Z,88.37
2018-02-07T08:47:33.031Z,88.84
2018-02-07T08:48:33.015Z,88.75
2018-02-07T08:49:32.982Z,88.65
2018-02-07T08:50:32.959Z,88.46
2018-02-07T08:51:32.938Z,88.46
2018-02-07T08:52:32.933Z,88.37
2018-02-07T08:53:32.968Z,88.93
2018-02-07T08:54:32.855Z,88.84
2018-02-07T08:55:32.834Z,88.93
2018-02-07T08:56:32.806Z,89.50
2018-02-07T08:57:32.785Z,88.75
2018-02-07T08:58:32.745Z,88.93
2018-02-07T08:59:32.724Z,88.84
2018-02-07T09:00:32.714Z,88.28
2018-02-07T09:01:32.666Z,87.80
2018-02-07T09:02:32.638Z,88.09
2018-02-07T09:03:32.608Z,87.75
2018-02-07T09:04:32.623Z,87.66
2018-02-07T09:05:32.572Z,87.52
2018-02-07T09:06:32.543Z,87.43
2018-02-07T09:07:32.530Z,87.33
2018-02-07T09:08:32.482Z,87.28
2018-02-07T09:09:32.542Z,87.47
2018-02-07T09:10:32.454Z,87.37
2018-02-07T09:11:32.513Z,87.75
2018-02-07T09:12:32.387Z,87.37
2018-02-07T09:13:32.375Z,86.90
2018-02-07T09:14:32.319Z,86.71
2018-02-07T09:15:32.309Z,86.15
2018-02-07T09:16:32.281Z,86.33
2018-02-07T09:17:32.256Z,86.43
2018-02-07T09:18:32.215Z,86.15
2018-02-07T09:19:32.232Z,85.86
2018-02-07T09:20:32.176Z,85.86
2018-02-07T09:21:32.158Z,85.58
2018-02-07T09:22:32.206Z,85.96
2018-02-07T09:23:32.141Z,85.86
2018-02-07T09:24:32.084Z,85.86
2018-02-07T09:25:32.054Z,85.77
2018-02-07T09:26:32.034Z,85.96
2018-02-07T09:27:31.970Z,85.20
2018-02-07T09:28:31.968Z,84.82
2018-02-07T09:29:31.947Z,84.73
2018-02-07T09:30:31.916Z,84.64
2018-02-07T09:31:31.881Z,84.82
2018-02-07T09:32:31.894Z,84.26
2018-02-07T09:33:31.833Z,84.64
2018-02-07T09:34:31.799Z,83.64
2018-02-07T09:35:31.783Z,83.36
2018-02-07T09:36:31.745Z,82.69
2018-02-07T09:37:31.714Z,82.50
2018-02-07T09:38:31.701Z,83.07
2018-02-07T09:39:31.716Z,82.88
2018-02-07T09:40:31.661Z,82.60
2018-02-07T09:41:31.646Z,82.22
2018-02-07T09:42:31.608Z,81.56
2018-02-07T09:43:31.592Z,81.37
2018-02-07T09:44:31.546Z,81.56
2018-02-07T09:45:31.524Z,81.18
2018-02-07T09:46:31.537Z,81.27
2018-02-07T09:47:31.504Z,81.18
2018-02-07T09:48:31.435Z,80.90
2018-02-07T09:49:31.407Z,81.27
2018-02-07T09:50:31.410Z,80.99
2018-02-07T09:51:31.360Z,81.46
2018-02-07T09:52:31.385Z,80.62
2018-02-07T09:53:31.326Z,80.62
2018-02-07T09:54:31.284Z,80.14
2018-02-07T09:55:31.265Z,80.05
2018-02-07T09:56:31.230Z,79.86
2018-02-07T09:57:31.232Z,79.86
2018-02-07T09:58:31.192Z,79.76
2018-02-07T09:59:31.167Z,79.48
2018-02-07T10:00:31.179Z,79.52
2018-02-07T10:01:31.101Z,78.81
2018-02-07T10:02:31.078Z,78.76
2018-02-07T10:03:31.054Z,78.91
2018-02-07T10:04:31.042Z,78.63
2018-02-07T10:05:31.064Z,78.81
2018-02-07T10:06:31.142Z,79.38
2018-02-07T10:07:30.986Z,78.72
2018-02-07T10:08:30.944Z,79.19
2018-02-07T10:09:30.928Z,79.43
2018-02-07T10:10:30.878Z,79.14
2018-02-07T10:11:30.866Z,78.86
2018-02-07T10:12:30.820Z,78.20
2018-02-07T10:13:30.852Z,78.20
2018-02-07T10:14:30.785Z,77.82
2018-02-07T10:15:30.750Z,77.63
2018-02-07T10:16:30.736Z,77.91
2018-02-07T10:17:30.714Z,77.63
2018-02-07T10:18:30.692Z,78.29
2018-02-07T10:19:30.687Z,77.82
2018-02-07T10:20:30.623Z,77.34
2018-02-07T10:21:30.607Z,77.44
2018-02-07T10:22:30.594Z,77.25
2018-02-07T10:23:30.552Z,76.97
2018-02-07T10:24:30.517Z,76.78
2018-02-07T10:25:30.551Z,77.34
2018-02-07T10:26:30.506Z,77.25
2018-02-07T10:27:30.454Z,77.15
2018-02-07T10:28:30.453Z,76.97
2018-02-07T10:29:30.436Z,76.68
2018-02-07T10:30:30.400Z,76.87
2018-02-07T10:31:30.353Z,77.34
2018-02-07T10:32:30.339Z,76.68
2018-02-07T10:33:30.318Z,76.12
2018-02-07T10:34:30.311Z,76.31
2018-02-07T10:35:30.296Z,76.78
2018-02-07T10:36:30.308Z,76.40
2018-02-07T10:37:30.550Z,77.06
2018-02-07T10:38:30.426Z,76.21
2018-02-07T10:39:30.376Z,76.50
2018-02-07T10:40:30.398Z,76.50
2018-02-07T10:41:30.302Z,76.21
2018-02-07T10:42:30.367Z,76.21
2018-02-07T10:43:30.060Z,76.31
2018-02-07T10:44:30.299Z,76.21
2018-02-07T10:45:31.247Z,76.50
2018-02-07T10:46:30.152Z,76.21
2018-02-07T10:47:30.147Z,76.21
2018-02-07T10:48:30.136Z,75.93
2018-02-07T10:49:30.173Z,75.83
2018-02-07T10:50:29.891Z,76.02
2018-02-07T10:51:30.117Z,75.74
2018-02-07T10:52:29.916Z,75.87
2018-02-07T10:53:30.112Z,75.68
2018-02-07T10:54:29.840Z,75.49
2018-02-07T10:55:30.603Z,75.59
2018-02-07T10:56:29.979Z,74.83
2018-02-07T10:57:29.959Z,74.55
2018-02-07T10:58:29.716Z,74.55
2018-02-07T10:59:29.845Z,74.74
2018-02-07T11:00:29.797Z,74.55
2018-02-07T11:01:29.852Z,74.74
2018-02-07T11:02:29.847Z,74.07
2018-02-07T11:03:29.797Z,74.26
2018-02-07T11:04:29.654Z,73.88
2018-02-07T11:05:29.827Z,74.45
2018-02-07T11:06:30.498Z,74.17
2018-02-07T11:07:29.760Z,74.64
2018-02-07T11:08:29.748Z,74.17
2018-02-07T11:09:29.448Z,74.26
2018-02-07T11:10:29.670Z,74.74
2018-02-07T11:11:29.623Z,75.02
2018-02-07T11:12:29.488Z,74.55
2018-02-07T11:13:29.556Z,74.74
2018-02-07T11:14:29.464Z,74.17
2018-02-07T11:15:29.486Z,74.17
2018-02-07T11:16:29.449Z,74.45
2018-02-07T11:17:29.459Z,73.88
2018-02-07T11:18:29.425Z,73.60
2018-02-07T11:19:29.443Z,73.69
2018-02-07T11:20:29.418Z,73.13
2018-02-07T11:21:29.387Z,72.85
2018-02-07T11:22:29.199Z,73.41
2018-02-07T11:23:29.172Z,73.50
2018-02-07T11:24:29.327Z,73.88
2018-02-07T11:25:29.322Z,73.50
2018-02-07T11:26:29.916Z,73.50
2018-02-07T11:27:29.229Z,73.50
2018-02-07T11:28:29.021Z,73.50
2018-02-07T11:29:29.248Z,73.03
2018-02-07T11:30:29.128Z,72.75
2018-02-07T11:31:28.925Z,72.94
2018-02-07T11:32:29.135Z,72.47
2018-02-07T11:33:29.028Z,71.90
2018-02-07T11:34:29.124Z,71.08
2018-02-07T11:35:28.965Z,70.98
2018-02-07T11:36:29.033Z,71.36
2018-02-07T11:37:28.897Z,70.61
2018-02-07T11:38:28.834Z,70.32
2018-02-07T11:39:28.979Z,70.32
2018-02-07T11:40:28.696Z,70.04
2018-02-07T11:41:28.990Z,70.04
2018-02-07T11:42:28.928Z,70.23
2018-02-07T11:43:28.782Z,70.04
2018-02-07T11:44:28.817Z,69.38
2018-02-07T11:45:28.586Z,69.38
2018-02-07T11:46:28.525Z,69.09
2018-02-07T11:47:28.525Z,69.19
2018-02-07T11:48:28.510Z,69.19
2018-02-07T11:49:28.456Z,69.66
2018-02-07T11:50:28.451Z,69.76
2018-02-07T11:51:28.420Z,70.32
2018-02-07T11:52:28.393Z,70.32
2018-02-07T11:53:28.367Z,70.23
2018-02-07T11:54:28.374Z,69.95
2018-02-07T11:55:28.319Z,69.57
2018-02-07T11:56:28.338Z,68.94
2018-02-07T11:57:28.282Z,68.62
2018-02-07T11:58:28.885Z,68.62
2018-02-07T11:59:28.394Z,69.85
2018-02-07T12:00:28.243Z,69.28
2018-02-07T12:01:28.171Z,68.90
2018-02-07T12:02:28.152Z,69.19
2018-02-07T12:03:28.130Z,68.62
2018-02-07T12:04:28.095Z,69.38
2018-02-07T12:05:28.133Z,69.66
2018-02-07T12:06:28.069Z,69.47
2018-02-07T12:07:28.047Z,69.95
2018-02-07T12:08:28.036Z,70.32
2018-02-07T12:09:27.996Z,70.14
2018-02-07T12:10:27.975Z,70.32
2018-02-07T12:11:27.942Z,70.32
2018-02-07T12:12:27.917Z,69.95
2018-02-07T12:13:27.920Z,70.04
2018-02-07T12:14:27.886Z,70.98
2018-02-07T12:15:27.853Z,70.98
2018-02-07T12:16:27.827Z,70.32
2018-02-07T12:17:27.825Z,70.04
2018-02-07T12:18:27.825Z,70.23
2018-02-07T12:19:27.756Z,70.42
2018-02-07T12:20:27.734Z,69.95
2018-02-07T12:21:27.708Z,70.32
2018-02-07T12:22:27.694Z,70.32
2018-02-07T12:23:27.663Z,70.04
2018-02-07T12:24:27.645Z,70.32
2018-02-07T12:25:27.635Z,70.04
2018-02-07T12:26:27.590Z,69.95
2018-02-07T12:27:27.818Z,70.23
2018-02-07T12:28:27.713Z,70.23
2018-02-07T12:29:28.488Z,70.23
2018-02-07T12:30:27.670Z,70.14
2018-02-07T12:31:27.603Z,70.23
2018-02-07T12:32:27.667Z,69.95
2018-02-07T12:33:27.654Z,70.32
2018-02-07T12:34:27.617Z,70.14
2018-02-07T12:35:27.700Z,70.14
2018-02-07T12:36:27.393Z,70.61
2018-02-07T12:37:27.500Z,71.17
2018-02-07T12:38:27.324Z,70.61
2018-02-07T12:39:27.286Z,70.89
2018-02-07T12:40:27.257Z,70.23
2018-02-07T12:41:27.250Z,70.32
2018-02-07T12:42:27.298Z,69.85
2018-02-07T12:43:27.231Z,69.09
2018-02-07T12:44:27.182Z,69.38
2018-02-07T12:45:27.184Z,69.57
2018-02-07T12:46:27.135Z,69.38
2018-02-07T12:47:27.192Z,69.28
2018-02-07T12:48:27.069Z,69.28
2018-02-07T12:49:27.070Z,69.76
2018-02-07T12:50:27.022Z,69.57
2018-02-07T12:51:27.034Z,70.04
2018-02-07T12:52:26.972Z,70.14